createdAt,value
2017-10-12T03:30:26.971Z,11.80
2017-10-12T03:32:55.353Z,11.80
2017-10-12T03:35:23.694Z,11.70
2017-10-12T03:37:51.323Z,11.70
2017-10-12T03:40:18.906Z,11.60
2017-10-12T03:42:46.490Z,11.60
2017-10-12T03:45:14.109Z,11.70
2017-10-12T03:47:41.690Z,11.80
2017-10-12T03:50:09.265Z,11.70
2017-10-12T03:52:36.943Z,11.80
2017-10-12T03:55:05.285Z,11.90
2017-10-12T03:57:32.867Z,11.90
2017-10-12T04:00:00.466Z,11.90
2017-10-12T04:02:28.101Z,11.90
2017-10-12T04:04:56.565Z,12.00
2017-10-12T04:07:24.141Z,12.10
2017-10-12T04:09:52.514Z,12.10
2017-10-12T04:12:20.967Z,12.20
2017-10-12T04:14:48.567Z,12.10
2017-10-12T04:17:16.217Z,12.20
2017-10-12T04:19:44.582Z,12.20
2017-10-12T04:22:12.230Z,12.20
2017-10-12T04:24:39.838Z,12.20
2017-10-12T04:27:07.470Z,12.30
2017-10-12T04:29:35.837Z,12.30
2017-10-12T04:32:03.541Z,12.30
2017-10-12T04:34:31.161Z,12.30
2017-10-12T04:36:58.825Z,12.30
2017-10-12T04:39:27.311Z,12.40
2017-10-12T04:41:55.682Z,12.30
2017-10-12T04:44:24.025Z,12.30
2017-10-12T04:46:51.723Z,12.30
2017-10-12T04:49:20.070Z,12.20
2017-10-12T04:51:47.691Z,12.20
2017-10-12T04:54:15.314Z,12.30
2017-10-12T04:56:43.663Z,12.30
2017-10-12T04:59:11.291Z,12.30
2017-10-12T05:01:38.869Z,12.20
2017-10-12T05:04:06.449Z,12.20
2017-10-12T05:06:34.057Z,12.20
2017-10-12T05:09:01.690Z,12.20
2017-10-12T05:11:30.038Z,12.20
2017-10-12T05:13:57.710Z,12.20
2017-10-12T05:16:25.295Z,12.20
2017-10-12T05:18:53.694Z,12.20
2017-10-12T05:21:21.270Z,12.20
2017-10-12T05:23:48.881Z,12.40
2017-10-12T05:26:17.268Z,12.30
2017-10-12T05:28:45.614Z,12.40
2017-10-12T05:31:13.193Z,12.40
2017-10-12T05:33:41.553Z,12.40
2017-10-12T05:36:09.894Z,12.40
2017-10-12T05:38:37.505Z,12.40
2017-10-12T05:41:05.903Z,12.50
2017-10-12T05:43:33.486Z,12.50
2017-10-12T05:46:01.101Z,12.60
2017-10-12T05:48:29.478Z,12.70
2017-10-12T05:50:57.859Z,12.80
2017-10-12T05:53:26.209Z,12.90
2017-10-12T05:55:53.891Z,12.90
2017-10-12T05:58:22.266Z,13.10
2017-10-12T06:00:50.650Z,13.20
2017-10-12T06:03:19.042Z,13.30
2017-10-12T06:05:46.633Z,13.30
2017-10-12T06:08:14.246Z,13.40
2017-10-12T06:10:42.618Z,13.40
2017-10-12T06:13:10.970Z,13.50
2017-10-12T06:15:38.621Z,13.50
2017-10-12T06:18:06.214Z,13.40
2017-10-12T06:20:34.570Z,13.40
2017-10-12T06:23:02.178Z,13.40
2017-10-12T06:25:29.765Z,13.40
2017-10-12T06:27:57.355Z,13.30
2017-10-12T06:30:25.030Z,13.30
2017-10-12T06:32:53.378Z,13.30
2017-10-12T06:35:20.966Z,13.20
2017-10-12T06:37:49.386Z,13.20
2017-10-12T06:40:17.011Z,13.10
2017-10-12T06:42:45.366Z,13.20
2017-10-12T06:45:12.989Z,13.20
2017-10-12T06:47:40.576Z,13.20
2017-10-12T06:50:08.262Z,13.20
2017-10-12T06:52:36.639Z,13.40
2017-10-12T06:55:05.970Z,13.40
2017-10-12T06:57:33.550Z,13.40
2017-10-12T07:00:01.150Z,13.40
2017-10-12T07:02:29.530Z,13.50
2017-10-12T07:04:57.905Z,13.50
2017-10-12T07:07:26.265Z,13.50
2017-10-12T07:09:53.918Z,13.50
2017-10-12T07:12:21.511Z,13.60
2017-10-12T07:14:49.866Z,13.70
2017-10-12T07:17:17.474Z,13.70
2017-10-12T07:19:45.058Z,13.70
2017-10-12T07:22:12.694Z,13.80
2017-10-12T07:24:40.282Z,13.80
2017-10-12T07:27:08.069Z,13.80
2017-10-12T07:29:36.497Z,13.80
2017-10-12T07:32:04.092Z,13.80
2017-10-12T07:34:31.742Z,13.70
2017-10-12T07:36:59.362Z,13.70
2017-10-12T07:39:26.947Z,13.70
2017-10-12T07:41:54.533Z,13.70
2017-10-12T07:44:22.146Z,13.80
2017-10-12T07:46:49.725Z,13.80
2017-10-12T07:49:17.331Z,13.90
2017-10-12T07:51:45.689Z,14.10
2017-10-12T07:54:13.338Z,14.10
2017-10-12T07:56:40.931Z,14.10
2017-10-12T07:59:09.277Z,14.30
2017-10-12T08:01:36.902Z,14.30
2017-10-12T08:04:04.490Z,14.30
2017-10-12T08:06:32.078Z,14.30
2017-10-12T08:09:00.461Z,14.40
2017-10-12T08:11:28.810Z,14.30
2017-10-12T08:13:56.465Z,14.40
2017-10-12T08:16:24.048Z,14.40
2017-10-12T08:18:52.410Z,14.40
2017-10-12T08:21:20.050Z,14.40
2017-10-12T08:23:47.668Z,14.30
2017-10-12T08:26:15.280Z,14.10
2017-10-12T08:28:42.979Z,14.10
2017-10-12T08:31:10.634Z,14.10
2017-10-12T08:33:39.009Z,14.20
2017-10-12T08:36:07.480Z,14.20
2017-10-12T08:38:35.850Z,14.20
2017-10-12T08:41:04.246Z,14.30
2017-10-12T08:43:32.634Z,14.40
2017-10-12T08:46:00.287Z,14.40
2017-10-12T08:48:28.876Z,14.60
2017-10-12T08:50:57.248Z,14.70
2017-10-12T08:53:25.598Z,14.60
2017-10-12T08:55:53.217Z,14.60
2017-10-12T08:58:20.810Z,14.60
2017-10-12T09:00:48.396Z,14.50
2017-10-12T09:03:16.877Z,14.70
2017-10-12T09:05:45.246Z,14.90
2017-10-12T09:08:12.859Z,14.90
2017-10-12T09:10:40.478Z,15.10
2017-10-12T09:13:08.855Z,15.10
2017-10-12T09:15:37.330Z,15.10
2017-10-12T09:18:05.706Z,15.30
2017-10-12T09:20:34.085Z,15.30
2017-10-12T09:23:02.433Z,15.30
2017-10-12T09:25:30.118Z,15.30
2017-10-12T09:27:58.485Z,15.30
2017-10-12T09:30:26.070Z,15.30
2017-10-12T09:32:53.698Z,15.20
2017-10-12T09:35:21.294Z,15.20
2017-10-12T09:37:48.884Z,15.20
2017-10-12T09:40:16.606Z,15.30
2017-10-12T09:42:44.198Z,15.30
2017-10-12T09:45:11.810Z,15.50
2017-10-12T09:47:40.202Z,15.60
2017-10-12T09:50:08.554Z,15.70
2017-10-12T09:52:36.229Z,15.70
2017-10-12T09:55:04.634Z,15.80
2017-10-12T09:57:32.226Z,15.80
2017-10-12T09:59:59.826Z,15.70
2017-10-12T10:02:28.306Z,15.80
2017-10-12T10:04:56.658Z,15.80
2017-10-12T10:07:24.244Z,15.80
2017-10-12T10:09:52.710Z,15.50
2017-10-12T10:12:20.377Z,15.50
2017-10-12T10:14:50.973Z,15.60
2017-10-12T10:17:18.793Z,15.60
2017-10-12T10:19:46.378Z,15.60
2017-10-12T10:22:13.977Z,15.60
2017-10-12T10:24:41.558Z,15.80
2017-10-12T10:27:09.901Z,15.90
2017-10-12T10:29:37.505Z,15.90
2017-10-12T10:32:05.086Z,16.00
2017-10-12T10:34:32.670Z,16.10
2017-10-12T10:37:00.298Z,16.10
2017-10-12T10:39:27.882Z,16.20
2017-10-12T10:41:55.466Z,16.20
2017-10-12T10:44:23.083Z,16.50
2017-10-12T10:46:50.667Z,16.60
2017-10-12T10:49:18.254Z,16.70
2017-10-12T10:51:46.622Z,16.60
2017-10-12T10:54:14.334Z,16.60
2017-10-12T10:56:41.913Z,16.80
2017-10-12T10:59:09.502Z,16.80
2017-10-12T11:01:37.101Z,16.50
2017-10-12T11:04:04.678Z,16.40
2017-10-12T11:06:32.278Z,16.30
2017-10-12T11:08:59.857Z,16.30
2017-10-12T11:11:28.202Z,16.60
2017-10-12T11:13:55.813Z,16.60
2017-10-12T11:16:23.391Z,16.80
2017-10-12T11:18:51.003Z,16.80
2017-10-12T11:21:18.621Z,16.80
2017-10-12T11:23:46.202Z,16.80
2017-10-12T11:26:13.832Z,16.70
2017-10-12T11:28:41.411Z,16.60
2017-10-12T11:31:08.994Z,16.60
2017-10-12T11:33:37.373Z,16.60
2017-10-12T11:36:05.722Z,16.60
2017-10-12T11:38:33.305Z,16.60
2017-10-12T11:41:01.716Z,16.60
2017-10-12T11:43:29.302Z,16.60
2017-10-12T11:45:56.883Z,16.60
2017-10-12T11:48:24.511Z,16.50
2017-10-12T11:50:52.089Z,16.50
2017-10-12T11:53:19.666Z,16.50
2017-10-12T11:55:47.340Z,16.40
2017-10-12T11:58:15.694Z,16.60
2017-10-12T12:00:43.275Z,16.70
2017-10-12T12:03:11.676Z,16.90
2017-10-12T12:05:39.265Z,16.90
2017-10-12T12:08:06.842Z,17.10
2017-10-12T12:10:34.442Z,17.10
2017-10-12T12:13:02.795Z,17.00
2017-10-12T12:15:30.401Z,16.90
2017-10-12T12:17:58.022Z,16.80
2017-10-12T12:20:26.369Z,16.50
2017-10-12T12:22:53.954Z,16.50
2017-10-12T12:25:22.350Z,16.50
2017-10-12T12:27:50.698Z,16.40
2017-10-12T12:30:18.274Z,16.40
2017-10-12T12:32:46.719Z,16.50
2017-10-12T12:35:14.297Z,16.50
2017-10-12T12:37:41.878Z,16.50
2017-10-12T12:40:10.250Z,16.40
2017-10-12T12:42:38.610Z,16.40
2017-10-12T12:45:06.235Z,16.40
2017-10-12T12:47:33.809Z,16.50
2017-10-12T12:50:01.389Z,16.50
2017-10-12T12:52:29.006Z,16.60
2017-10-12T12:54:56.591Z,16.70
2017-10-12T12:57:24.280Z,16.70
2017-10-12T12:59:52.767Z,16.70
2017-10-12T13:02:21.113Z,16.70
2017-10-12T13:04:48.797Z,16.70
2017-10-12T13:07:17.178Z,16.70
2017-10-12T13:09:45.522Z,16.70
2017-10-12T13:12:13.129Z,16.70
2017-10-12T13:14:40.710Z,16.60
2017-10-12T13:17:08.317Z,16.50
2017-10-12T13:19:35.898Z,16.60
2017-10-12T13:22:04.372Z,16.60
2017-10-12T13:24:32.742Z,16.50
2017-10-12T13:27:00.370Z,16.50
2017-10-12T13:29:28.065Z,16.50
2017-10-12T13:31:56.440Z,16.60
2017-10-12T13:34:24.826Z,16.70
2017-10-12T13:36:53.171Z,16.90
2017-10-12T13:39:20.865Z,16.90
2017-10-12T13:41:49.266Z,16.90
2017-10-12T13:44:16.848Z,16.90
2017-10-12T13:46:44.431Z,16.90
2017-10-12T13:49:13.558Z,16.60
2017-10-12T13:51:41.150Z,16.60
2017-10-12T13:54:08.739Z,16.40
2017-10-12T13:56:36.371Z,16.30
2017-10-12T13:59:03.950Z,16.30
2017-10-12T14:01:31.536Z,16.40
2017-10-12T14:04:00.121Z,16.60
2017-10-12T14:06:28.502Z,16.60
2017-10-12T14:08:56.874Z,16.50
2017-10-12T14:11:25.518Z,16.50
2017-10-12T14:13:53.106Z,16.40
2017-10-12T14:16:20.746Z,16.40
2017-10-12T14:18:48.343Z,16.30
2017-10-12T14:21:16.695Z,16.30
2017-10-12T14:23:44.299Z,16.30
2017-10-12T14:26:11.937Z,16.20
2017-10-12T14:28:40.284Z,16.10
2017-10-12T14:31:07.908Z,16.10
2017-10-12T14:33:35.489Z,16.10
2017-10-12T14:38:30.634Z,16.10
2017-10-12T14:40:58.218Z,16.10
2017-10-12T14:43:26.606Z,16.10
2017-10-12T14:45:54.186Z,16.10
2017-10-12T14:48:21.771Z,16.10
2017-10-12T14:50:49.397Z,16.10
2017-10-12T14:53:16.982Z,16.10
2017-10-12T14:55:44.567Z,16.10
2017-10-12T14:58:12.176Z,16.00
2017-10-12T15:00:39.762Z,15.90
2017-10-12T15:03:07.359Z,15.80
2017-10-12T15:05:35.775Z,15.60
2017-10-12T15:08:03.353Z,15.60
2017-10-12T15:10:31.706Z,15.50
2017-10-12T15:12:59.310Z,15.40
2017-10-12T15:15:26.939Z,15.40
2017-10-12T15:17:54.528Z,15.40
2017-10-12T15:20:22.114Z,15.30
2017-10-12T15:22:50.491Z,15.20
2017-10-12T15:25:18.838Z,15.10
2017-10-12T15:27:46.428Z,15.10
2017-10-12T15:30:14.042Z,15.10
2017-10-12T15:32:41.633Z,15.00
2017-10-12T15:35:10.001Z,14.90
2017-10-12T15:37:37.578Z,14.90
2017-10-12T15:40:05.921Z,14.80
2017-10-12T15:42:33.559Z,14.70
2017-10-12T15:45:01.141Z,14.80
2017-10-12T15:47:28.732Z,14.70
2017-10-12T15:49:57.114Z,14.60
2017-10-12T15:52:24.758Z,14.50
2017-10-12T15:54:53.114Z,14.40
2017-10-12T15:57:20.709Z,14.40
2017-10-12T15:59:48.333Z,14.40
2017-10-12T16:02:15.926Z,14.30
2017-10-12T16:04:43.514Z,14.20
2017-10-12T16:07:11.147Z,14.10
2017-10-12T16:09:38.754Z,14.10
2017-10-12T16:12:06.339Z,14.00
2017-10-12T16:14:33.970Z,13.90
2017-10-12T16:17:01.558Z,13.80
2017-10-12T16:19:29.154Z,13.70
2017-10-12T16:21:56.757Z,13.60
2017-10-12T16:24:24.337Z,13.60
2017-10-12T16:26:51.978Z,13.60
2017-10-12T16:29:19.563Z,13.60
2017-10-12T16:31:47.921Z,13.40
2017-10-12T16:34:15.546Z,13.40
2017-10-12T16:36:43.134Z,13.30
2017-10-12T16:39:10.725Z,13.30
2017-10-12T16:41:39.113Z,13.30
2017-10-12T16:44:06.711Z,13.30
2017-10-12T16:46:34.305Z,13.20
2017-10-12T16:49:01.914Z,13.10
2017-10-12T16:51:29.551Z,13.00
2017-10-12T16:53:57.137Z,13.00
2017-10-12T16:56:24.870Z,13.00
2017-10-12T16:58:52.486Z,13.00
2017-10-12T17:01:20.206Z,12.90
2017-10-12T17:03:47.842Z,12.90
2017-10-12T17:06:16.214Z,12.90
2017-10-12T17:08:44.589Z,12.90
2017-10-12T17:11:12.996Z,12.90
2017-10-12T17:13:40.593Z,12.90
2017-10-12T17:16:08.200Z,12.80
2017-10-12T17:18:36.586Z,12.80
2017-10-12T17:21:04.306Z,12.80
2017-10-12T17:25:59.661Z,12.70
2017-10-12T17:28:28.057Z,12.50
2017-10-12T17:33:23.265Z,12.50
2017-10-12T17:35:50.883Z,12.40
2017-10-12T17:38:19.264Z,12.40
2017-10-12T17:40:46.861Z,12.30
2017-10-12T17:43:14.528Z,12.20
2017-10-12T17:45:42.657Z,12.30
2017-10-12T17:48:10.250Z,12.20
2017-10-12T17:50:37.890Z,12.20
2017-10-12T17:53:06.248Z,12.10
2017-10-12T17:55:33.985Z,12.10
2017-10-12T17:58:01.613Z,12.00
2017-10-12T18:00:29.270Z,12.00
2017-10-12T18:02:56.878Z,11.90
2017-10-12T18:05:24.489Z,11.80
2017-10-12T18:07:52.174Z,11.70
2017-10-12T18:10:19.802Z,11.70
2017-10-12T18:12:48.178Z,11.60
2017-10-12T18:15:16.554Z,11.60
2017-10-12T18:17:44.977Z,11.50
2017-10-12T18:20:12.567Z,11.50
2017-10-12T18:22:40.198Z,11.50
2017-10-12T18:25:07.819Z,11.50
2017-10-12T18:27:35.482Z,11.40
2017-10-12T18:30:03.115Z,11.40
2017-10-12T18:32:31.509Z,11.50
2017-10-12T18:34:59.981Z,11.60
2017-10-12T18:37:28.363Z,11.40
2017-10-12T18:39:56.715Z,11.40
2017-10-12T18:42:24.394Z,11.40
2017-10-12T18:44:52.751Z,11.30
2017-10-12T18:47:20.342Z,11.30
2017-10-12T18:49:48.746Z,11.40
2017-10-12T18:52:16.374Z,11.40
2017-10-12T18:54:44.750Z,11.70
2017-10-12T18:57:13.126Z,11.70
2017-10-12T18:59:41.479Z,11.60
2017-10-12T19:02:09.061Z,11.50
2017-10-12T19:04:37.428Z,11.30
2017-10-12T19:07:05.098Z,11.30
2017-10-12T19:09:33.587Z,11.00
2017-10-12T19:12:01.959Z,10.90
2017-10-12T19:14:30.334Z,10.90
2017-10-12T19:16:58.813Z,10.80
2017-10-12T19:19:27.171Z,10.80
2017-10-12T19:21:54.753Z,10.70
2017-10-12T19:24:23.138Z,10.70
2017-10-12T19:26:50.727Z,10.70
2017-10-12T19:29:18.350Z,10.70
2017-10-12T19:31:46.697Z,10.80
2017-10-12T19:34:14.281Z,10.80
2017-10-12T19:36:42.708Z,10.80
2017-10-12T19:39:10.290Z,10.80
2017-10-12T19:41:38.642Z,11.00
2017-10-12T19:44:06.281Z,11.00
2017-10-12T19:46:33.964Z,11.00
2017-10-12T19:49:01.546Z,11.00
2017-10-12T19:51:29.156Z,11.00
2017-10-12T19:53:56.833Z,10.90
2017-10-12T19:56:24.419Z,10.80
2017-10-12T19:59:06.989Z,10.70
2017-10-12T20:01:19.722Z,10.70
2017-10-12T20:03:47.334Z,10.60
2017-10-12T20:06:15.811Z,10.40
2017-10-12T20:08:44.154Z,10.50
2017-10-12T20:11:11.840Z,10.40
2017-10-12T20:13:39.518Z,10.50
2017-10-12T20:16:07.861Z,10.70
2017-10-12T20:18:35.541Z,10.60
2017-10-12T20:21:04.023Z,10.80
2017-10-12T20:23:32.378Z,10.80
2017-10-12T20:26:00.030Z,10.70
2017-10-12T20:28:27.644Z,10.80
2017-10-12T20:30:55.237Z,10.90
2017-10-12T20:33:22.945Z,11.00
2017-10-12T20:35:51.317Z,10.90
2017-10-12T20:38:19.698Z,10.80
2017-10-12T20:40:48.174Z,10.80
2017-10-12T20:43:16.522Z,10.80
2017-10-12T20:45:44.103Z,10.80
2017-10-12T20:48:11.774Z,10.80
2017-10-12T20:50:40.305Z,10.80
2017-10-12T20:53:07.889Z,10.80
2017-10-12T20:55:35.494Z,10.80
2017-10-12T20:58:03.150Z,10.80
2017-10-12T21:00:30.790Z,10.90
2017-10-12T21:02:59.260Z,10.70
2017-10-12T21:05:26.847Z,10.70
2017-10-12T21:07:54.424Z,10.70
2017-10-12T21:10:22.145Z,10.70
2017-10-12T21:12:49.726Z,10.70
2017-10-12T21:15:17.370Z,10.60
2017-10-12T21:17:45.850Z,10.70
2017-10-12T21:20:14.198Z,10.80
2017-10-12T21:22:41.788Z,10.80
2017-10-12T21:25:10.268Z,10.70
2017-10-12T21:27:38.748Z,10.60
2017-10-12T21:30:08.047Z,10.70
2017-10-12T21:32:36.398Z,10.60
2017-10-12T21:35:04.078Z,10.50
2017-10-12T21:37:32.470Z,10.60
2017-10-12T21:40:00.821Z,10.50
2017-10-12T21:42:28.400Z,10.50
2017-10-12T21:44:57.033Z,10.60
2017-10-12T21:47:24.895Z,10.60
2017-10-12T21:49:52.659Z,10.60
2017-10-12T21:52:20.449Z,10.50
2017-10-12T21:54:48.287Z,10.50
2017-10-12T21:57:16.049Z,10.40
2017-10-12T21:59:43.919Z,10.30
2017-10-12T22:02:11.599Z,10.40
2017-10-12T22:04:39.440Z,10.30
2017-10-12T22:07:07.306Z,10.50
2017-10-12T22:09:35.069Z,10.40
2017-10-12T22:12:02.935Z,10.30
2017-10-12T22:14:30.799Z,10.20
2017-10-12T22:16:58.561Z,10.20
2017-10-12T22:19:26.325Z,10.20
2017-10-12T22:21:53.984Z,10.10
2017-10-12T22:24:21.851Z,10.10
2017-10-12T22:26:49.613Z,10.10
2017-10-12T22:29:17.376Z,10.10
